sensor_id;sensor_type;location;lat;lon;timestamp;temperature;humidity
15355;DHT22;7777;52.254;9.618;2024-02-14T00:00:18;7.80;99.90
15355;DHT22;7777;52.254;9.618;2024-02-14T00:02:46;7.90;99.90
15355;DHT22;7777;52.254;9.618;2024-02-14T00:05:15;7.90;99.90
15355;DHT22;7777;52.254;9.618;2024-02-14T00:07:41;7.90;99.90
15355;DHT22;7777;52.254;9.618;2024-02-14T00:10:08;7.90;99.90
15355;DHT22;7777;52.254;9.618;2024-02-14T00:12:35;7.90;99.90
15355;DHT22;7777;52.254;9.618;2024-02-14T00:15:02;7.90;99.90
15355;DHT22;7777;52.254;9.618;2024-02-14T00:17:29;7.90;99.90
15355;DHT22;7777;52.254;9.618;2024-02-14T00:19:55;7.90;99.90
15355;DHT22;7777;52.254;9.618;2024-02-14T00:22:21;8.00;99.90
15355;DHT22;7777;52.254;9.618;2024-02-14T00:24:47;8.00;99.90
15355;DHT22;7777;52.254;9.618;2024-02-14T00:27:13;8.00;99.90
15355;DHT22;7777;52.254;9.618;2024-02-14T00:29:41;7.90;99.90
15355;DHT22;7777;52.254;9.618;2024-02-14T00:32:11;8.00;99.90
15355;DHT22;7777;52.254;9.618;2024-02-14T00:34:38;8.00;99.90
15355;DHT22;7777;52.254;9.618;2024-02-14T00:37:03;8.00;99.90
15355;DHT22;7777;52.254;9.618;2024-02-14T00:39:29;8.00;99.90
15355;DHT22;7777;52.254;9.618;2024-02-14T00:41:55;8.00;99.90
15355;DHT22;7777;52.254;9.618;2024-02-14T00:44:21;7.90;99.90
15355;DHT22;7777;52.254;9.618;2024-02-14T00:46:48;8.00;99.90
15355;DHT22;7777;52.254;9.618;2024-02-14T00:49:14;7.90;99.90
15355;DHT22;7777;52.254;9.618;2024-02-14T00:51:40;7.90;99.90
15355;DHT22;7777;52.254;9.618;2024-02-14T00:54:08;7.90;99.90
15355;DHT22;7777;52.254;9.618;2024-02-14T00:56:34;8.00;99.90
15355;DHT22;7777;52.254;9.618;2024-02-14T00:59:00;8.00;99.90
15355;DHT22;7777;52.254;9.618;2024-02-14T01:01:26;8.00;99.90
15355;DHT22;7777;52.254;9.618;2024-02-14T01:03:53;7.90;99.90
15355;DHT22;7777;52.254;9.618;2024-02-14T01:06:19;7.90;99.90
15355;DHT22;7777;52.254;9.618;2024-02-14T01:08:45;7.90;99.90
15355;DHT22;7777;52.254;9.618;2024-02-14T01:11:11;7.90;99.90
15355;DHT22;7777;52.254;9.618;2024-02-14T01:13:37;7.90;99.90
15355;DHT22;7777;52.254;9.618;2024-02-14T01:16:04;7.90;99.90
15355;DHT22;7777;52.254;9.618;2024-02-14T01:18:30;7.90;99.90
15355;DHT22;7777;52.254;9.618;2024-02-14T01:20:57;7.90;99.90
15355;DHT22;7777;52.254;9.618;2024-02-14T01:23:24;7.90;99.90
15355;DHT22;7777;52.254;9.618;2024-02-14T01:25:50;7.90;99.90
15355;DHT22;7777;52.254;9.618;2024-02-14T01:28:16;7.90;99.90
15355;DHT22;7777;52.254;9.618;2024-02-14T01:30:42;7.90;99.90
15355;DHT22;7777;52.254;9.618;2024-02-14T01:33:08;7.90;99.90
15355;DHT22;7777;52.254;9.618;2024-02-14T01:35:36;7.90;99.90
15355;DHT22;7777;52.254;9.618;2024-02-14T01:38:02;7.90;99.90
15355;DHT22;7777;52.254;9.618;2024-02-14T01:40:28;7.90;99.90
15355;DHT22;7777;52.254;9.618;2024-02-14T01:42:54;7.80;99.90
15355;DHT22;7777;52.254;9.618;2024-02-14T01:45:21;7.80;99.90
15355;DHT22;7777;52.254;9.618;2024-02-14T01:47:48;7.80;99.90
15355;DHT22;7777;52.254;9.618;2024-02-14T01:50:16;7.80;99.90
15355;DHT22;7777;52.254;9.618;2024-02-14T01:52:44;7.80;99.90
15355;DHT22;7777;52.254;9.618;2024-02-14T01:55:12;7.80;99.90
15355;DHT22;7777;52.254;9.618;2024-02-14T01:57:39;7.80;99.90
15355;DHT22;7777;52.254;9.618;2024-02-14T02:00:06;7.80;99.90
15355;DHT22;7777;52.254;9.618;2024-02-14T02:02:35;7.80;99.90
15355;DHT22;7777;52.254;9.618;2024-02-14T02:05:05;7.80;99.90
15355;DHT22;7777;52.254;9.618;2024-02-14T02:07:32;7.80;99.90
15355;DHT22;7777;52.254;9.618;2024-02-14T02:09:58;7.80;99.90
15355;DHT22;7777;52.254;9.618;2024-02-14T02:12:24;7.80;99.90
15355;DHT22;7777;52.254;9.618;2024-02-14T02:14:53;7.90;99.90
15355;DHT22;7777;52.254;9.618;2024-02-14T02:17:19;7.90;99.90
15355;DHT22;7777;52.254;9.618;2024-02-14T02:19:46;7.90;99.90
15355;DHT22;7777;52.254;9.618;2024-02-14T02:22:12;7.90;99.90
15355;DHT22;7777;52.254;9.618;2024-02-14T02:24:37;7.90;99.90
15355;DHT22;7777;52.254;9.618;2024-02-14T02:27:03;7.90;99.90
15355;DHT22;7777;52.254;9.618;2024-02-14T02:29:30;7.90;99.90
15355;DHT22;7777;52.254;9.618;2024-02-14T02:31:58;7.90;99.90
15355;DHT22;7777;52.254;9.618;2024-02-14T02:34:23;7.90;99.90
15355;DHT22;7777;52.254;9.618;2024-02-14T02:36:49;7.90;99.90
15355;DHT22;7777;52.254;9.618;2024-02-14T02:39:16;8.00;99.90
15355;DHT22;7777;52.254;9.618;2024-02-14T02:41:42;7.90;99.90
15355;DHT22;7777;52.254;9.618;2024-02-14T02:44:13;7.90;99.90
15355;DHT22;7777;52.254;9.618;2024-02-14T02:46:38;8.00;99.90
15355;DHT22;7777;52.254;9.618;2024-02-14T02:49:04;8.00;99.90
15355;DHT22;7777;52.254;9.618;2024-02-14T02:51:30;8.00;99.90
15355;DHT22;7777;52.254;9.618;2024-02-14T02:53:56;8.00;99.90
15355;DHT22;7777;52.254;9.618;2024-02-14T02:56:22;8.00;99.90
15355;DHT22;7777;52.254;9.618;2024-02-14T02:58:55;8.00;99.90
15355;DHT22;7777;52.254;9.618;2024-02-14T03:01:21;8.00;99.90
15355;DHT22;7777;52.254;9.618;2024-02-14T03:03:50;8.00;99.90
15355;DHT22;7777;52.254;9.618;2024-02-14T03:06:17;8.00;99.90
15355;DHT22;7777;52.254;9.618;2024-02-14T03:08:46;8.00;99.90
15355;DHT22;7777;52.254;9.618;2024-02-14T03:11:15;7.90;99.90
15355;DHT22;7777;52.254;9.618;2024-02-14T03:13:41;8.00;99.90
15355;DHT22;7777;52.254;9.618;2024-02-14T03:16:07;8.00;99.90
15355;DHT22;7777;52.254;9.618;2024-02-14T03:18:33;8.00;99.90
15355;DHT22;7777;52.254;9.618;2024-02-14T03:20:59;7.90;99.90
15355;DHT22;7777;52.254;9.618;2024-02-14T03:23:24;8.00;99.90
15355;DHT22;7777;52.254;9.618;2024-02-14T03:25:50;8.00;99.90
15355;DHT22;7777;52.254;9.618;2024-02-14T03:28:17;8.00;99.90
15355;DHT22;7777;52.254;9.618;2024-02-14T03:30:43;8.00;99.90
15355;DHT22;7777;52.254;9.618;2024-02-14T03:33:10;8.00;99.90
15355;DHT22;7777;52.254;9.618;2024-02-14T03:35:36;8.00;99.90
15355;DHT22;7777;52.254;9.618;2024-02-14T03:38:02;8.00;99.90
15355;DHT22;7777;52.254;9.618;2024-02-14T03:40:29;8.00;99.90
15355;DHT22;7777;52.254;9.618;2024-02-14T03:42:57;8.10;99.90
15355;DHT22;7777;52.254;9.618;2024-02-14T03:45:23;8.00;99.90
15355;DHT22;7777;52.254;9.618;2024-02-14T03:47:49;8.10;99.90
15355;DHT22;7777;52.254;9.618;2024-02-14T03:50:15;8.10;99.90
15355;DHT22;7777;52.254;9.618;2024-02-14T03:52:41;8.10;99.90
15355;DHT22;7777;52.254;9.618;2024-02-14T03:55:10;8.10;99.90
15355;DHT22;7777;52.254;9.618;2024-02-14T03:57:38;8.20;99.90
15355;DHT22;7777;52.254;9.618;2024-02-14T04:00:05;8.10;99.90
15355;DHT22;7777;52.254;9.618;2024-02-14T04:02:35;8.10;99.90
15355;DHT22;7777;52.254;9.618;2024-02-14T04:05:02;8.10;99.90
15355;DHT22;7777;52.254;9.618;2024-02-14T04:07:28;8.10;99.90
15355;DHT22;7777;52.254;9.618;2024-02-14T04:09:55;8.10;99.90
15355;DHT22;7777;52.254;9.618;2024-02-14T04:12:21;8.10;99.90
15355;DHT22;7777;52.254;9.618;2024-02-14T04:14:47;8.10;99.90
15355;DHT22;7777;52.254;9.618;2024-02-14T04:17:13;8.10;99.90
15355;DHT22;7777;52.254;9.618;2024-02-14T04:19:39;8.10;99.90
15355;DHT22;7777;52.254;9.618;2024-02-14T04:22:05;8.20;99.90
15355;DHT22;7777;52.254;9.618;2024-02-14T04:24:35;8.20;99.90
15355;DHT22;7777;52.254;9.618;2024-02-14T04:27:01;8.20;99.90
15355;DHT22;7777;52.254;9.618;2024-02-14T04:29:29;8.20;99.90
15355;DHT22;7777;52.254;9.618;2024-02-14T04:31:58;8.20;99.90
15355;DHT22;7777;52.254;9.618;2024-02-14T04:34:25;8.20;99.90
15355;DHT22;7777;52.254;9.618;2024-02-14T04:36:51;8.20;99.90
15355;DHT22;7777;52.254;9.618;2024-02-14T04:39:17;8.20;99.90
15355;DHT22;7777;52.254;9.618;2024-02-14T04:41:43;8.10;99.90
15355;DHT22;7777;52.254;9.618;2024-02-14T04:44:09;8.20;99.90
15355;DHT22;7777;52.254;9.618;2024-02-14T04:46:34;8.10;99.90
15355;DHT22;7777;52.254;9.618;2024-02-14T04:49:02;8.20;99.90
15355;DHT22;7777;52.254;9.618;2024-02-14T04:51:30;8.10;99.90
15355;DHT22;7777;52.254;9.618;2024-02-14T04:53:57;8.10;99.90
15355;DHT22;7777;52.254;9.618;2024-02-14T04:56:27;8.10;99.90
15355;DHT22;7777;52.254;9.618;2024-02-14T04:58:55;8.10;99.90
15355;DHT22;7777;52.254;9.618;2024-02-14T05:01:22;8.10;99.90
15355;DHT22;7777;52.254;9.618;2024-02-14T05:03:48;8.20;99.90
15355;DHT22;7777;52.254;9.618;2024-02-14T05:06:16;8.10;99.90
15355;DHT22;7777;52.254;9.618;2024-02-14T05:08:42;8.10;99.90
15355;DHT22;7777;52.254;9.618;2024-02-14T05:11:08;8.20;99.90
15355;DHT22;7777;52.254;9.618;2024-02-14T05:13:33;8.10;99.90
15355;DHT22;7777;52.254;9.618;2024-02-14T05:16:03;8.10;99.90
15355;DHT22;7777;52.254;9.618;2024-02-14T05:18:30;8.20;99.90
15355;DHT22;7777;52.254;9.618;2024-02-14T05:20:55;8.20;99.90
15355;DHT22;7777;52.254;9.618;2024-02-14T05:23:21;8.10;99.90
15355;DHT22;7777;52.254;9.618;2024-02-14T05:25:47;8.10;99.90
15355;DHT22;7777;52.254;9.618;2024-02-14T05:28:15;8.20;99.90
15355;DHT22;7777;52.254;9.618;2024-02-14T05:30:43;8.20;99.90
15355;DHT22;7777;52.254;9.618;2024-02-14T05:33:08;8.10;99.90
15355;DHT22;7777;52.254;9.618;2024-02-14T05:35:34;8.20;99.90
15355;DHT22;7777;52.254;9.618;2024-02-14T05:38:00;8.20;99.90
15355;DHT22;7777;52.254;9.618;2024-02-14T05:40:25;8.10;99.90
15355;DHT22;7777;52.254;9.618;2024-02-14T05:42:51;8.20;99.90
15355;DHT22;7777;52.254;9.618;2024-02-14T05:45:17;8.20;99.90
15355;DHT22;7777;52.254;9.618;2024-02-14T05:47:43;8.20;99.90
15355;DHT22;7777;52.254;9.618;2024-02-14T05:50:09;8.20;99.90
15355;DHT22;7777;52.254;9.618;2024-02-14T05:52:37;8.20;99.90
15355;DHT22;7777;52.254;9.618;2024-02-14T05:55:04;8.20;99.90
15355;DHT22;7777;52.254;9.618;2024-02-14T05:57:30;8.20;99.90
15355;DHT22;7777;52.254;9.618;2024-02-14T05:59:56;8.20;99.90
15355;DHT22;7777;52.254;9.618;2024-02-14T06:02:23;8.20;99.90
15355;DHT22;7777;52.254;9.618;2024-02-14T06:04:48;8.20;99.90
15355;DHT22;7777;52.254;9.618;2024-02-14T06:07:14;8.20;99.90
15355;DHT22;7777;52.254;9.618;2024-02-14T06:09:40;8.20;99.90
15355;DHT22;7777;52.254;9.618;2024-02-14T06:12:06;8.20;99.90
15355;DHT22;7777;52.254;9.618;2024-02-14T06:14:32;8.20;99.90
15355;DHT22;7777;52.254;9.618;2024-02-14T06:16:59;8.20;99.90
15355;DHT22;7777;52.254;9.618;2024-02-14T06:19:26;8.20;99.90
15355;DHT22;7777;52.254;9.618;2024-02-14T06:21:53;8.20;99.90
15355;DHT22;7777;52.254;9.618;2024-02-14T06:24:19;8.20;99.90
15355;DHT22;7777;52.254;9.618;2024-02-14T06:26:45;8.20;99.90
15355;DHT22;7777;52.254;9.618;2024-02-14T06:29:11;8.20;99.90
15355;DHT22;7777;52.254;9.618;2024-02-14T06:31:38;8.20;99.90
15355;DHT22;7777;52.254;9.618;2024-02-14T06:34:04;8.30;99.90
15355;DHT22;7777;52.254;9.618;2024-02-14T06:36:32;8.20;99.90
15355;DHT22;7777;52.254;9.618;2024-02-14T06:38:58;8.30;99.90
15355;DHT22;7777;52.254;9.618;2024-02-14T06:41:25;8.20;99.90
15355;DHT22;7777;52.254;9.618;2024-02-14T06:43:51;8.20;99.90
15355;DHT22;7777;52.254;9.618;2024-02-14T06:46:17;8.30;99.90
15355;DHT22;7777;52.254;9.618;2024-02-14T06:48:43;8.20;99.90
15355;DHT22;7777;52.254;9.618;2024-02-14T06:51:09;8.20;99.90
15355;DHT22;7777;52.254;9.618;2024-02-14T06:53:35;8.20;99.90
15355;DHT22;7777;52.254;9.618;2024-02-14T06:56:01;8.30;99.90
15355;DHT22;7777;52.254;9.618;2024-02-14T06:58:26;8.20;99.90
15355;DHT22;7777;52.254;9.618;2024-02-14T07:00:52;8.30;99.90
15355;DHT22;7777;52.254;9.618;2024-02-14T07:03:18;8.20;99.90
15355;DHT22;7777;52.254;9.618;2024-02-14T07:05:44;8.30;99.90
15355;DHT22;7777;52.254;9.618;2024-02-14T07:08:10;8.30;99.90
15355;DHT22;7777;52.254;9.618;2024-02-14T07:10:36;8.20;99.90
15355;DHT22;7777;52.254;9.618;2024-02-14T07:13:01;8.20;99.90
15355;DHT22;7777;52.254;9.618;2024-02-14T07:15:28;8.30;99.90
15355;DHT22;7777;52.254;9.618;2024-02-14T07:17:55;8.30;99.90
15355;DHT22;7777;52.254;9.618;2024-02-14T07:20:21;8.30;99.90
15355;DHT22;7777;52.254;9.618;2024-02-14T07:22:47;8.30;99.90
15355;DHT22;7777;52.254;9.618;2024-02-14T07:25:18;8.30;99.90
15355;DHT22;7777;52.254;9.618;2024-02-14T07:27:45;8.30;99.90
15355;DHT22;7777;52.254;9.618;2024-02-14T07:30:12;8.30;99.90
15355;DHT22;7777;52.254;9.618;2024-02-14T07:32:37;8.30;99.90
15355;DHT22;7777;52.254;9.618;2024-02-14T07:35:04;8.30;99.90
15355;DHT22;7777;52.254;9.618;2024-02-14T07:37:30;8.30;99.90
15355;DHT22;7777;52.254;9.618;2024-02-14T07:39:56;8.30;99.90
15355;DHT22;7777;52.254;9.618;2024-02-14T07:42:22;8.30;99.90
15355;DHT22;7777;52.254;9.618;2024-02-14T07:44:48;8.30;99.90
15355;DHT22;7777;52.254;9.618;2024-02-14T07:47:14;8.30;99.90
15355;DHT22;7777;52.254;9.618;2024-02-14T07:49:40;8.30;99.90
15355;DHT22;7777;52.254;9.618;2024-02-14T07:52:06;8.30;99.90
15355;DHT22;7777;52.254;9.618;2024-02-14T07:54:32;8.30;99.90
15355;DHT22;7777;52.254;9.618;2024-02-14T07:56:58;8.30;99.90
15355;DHT22;7777;52.254;9.618;2024-02-14T07:59:23;8.30;99.90
15355;DHT22;7777;52.254;9.618;2024-02-14T08:01:49;8.30;99.90
15355;DHT22;7777;52.254;9.618;2024-02-14T08:04:16;8.40;99.90
15355;DHT22;7777;52.254;9.618;2024-02-14T08:06:42;8.30;99.90
15355;DHT22;7777;52.254;9.618;2024-02-14T08:09:10;8.40;99.90
15355;DHT22;7777;52.254;9.618;2024-02-14T08:11:36;8.40;99.90
15355;DHT22;7777;52.254;9.618;2024-02-14T08:14:02;8.40;99.90
15355;DHT22;7777;52.254;9.618;2024-02-14T08:16:29;8.40;99.90
15355;DHT22;7777;52.254;9.618;2024-02-14T08:18:55;8.50;99.90
15355;DHT22;7777;52.254;9.618;2024-02-14T08:21:27;8.50;99.90
15355;DHT22;7777;52.254;9.618;2024-02-14T08:23:54;8.50;99.90
15355;DHT22;7777;52.254;9.618;2024-02-14T08:26:21;8.50;99.90
15355;DHT22;7777;52.254;9.618;2024-02-14T08:28:48;8.50;99.90
15355;DHT22;7777;52.254;9.618;2024-02-14T08:31:14;8.60;99.90
15355;DHT22;7777;52.254;9.618;2024-02-14T08:33:40;8.60;99.90
15355;DHT22;7777;52.254;9.618;2024-02-14T08:36:06;8.60;99.90
15355;DHT22;7777;52.254;9.618;2024-02-14T08:38:32;8.60;99.90
15355;DHT22;7777;52.254;9.618;2024-02-14T08:41:04;8.70;99.90
15355;DHT22;7777;52.254;9.618;2024-02-14T08:43:30;8.70;99.90
15355;DHT22;7777;52.254;9.618;2024-02-14T08:45:56;8.70;99.90
15355;DHT22;7777;52.254;9.618;2024-02-14T08:48:22;8.70;99.90
15355;DHT22;7777;52.254;9.618;2024-02-14T08:50:49;8.70;99.90
15355;DHT22;7777;52.254;9.618;2024-02-14T08:53:14;8.80;99.90
15355;DHT22;7777;52.254;9.618;2024-02-14T08:55:41;8.80;99.90
15355;DHT22;7777;52.254;9.618;2024-02-14T08:58:07;8.80;99.90
15355;DHT22;7777;52.254;9.618;2024-02-14T09:00:35;8.90;99.90
15355;DHT22;7777;52.254;9.618;2024-02-14T09:03:04;8.90;99.90
15355;DHT22;7777;52.254;9.618;2024-02-14T09:05:31;9.00;99.90
15355;DHT22;7777;52.254;9.618;2024-02-14T09:07:57;9.00;99.90
15355;DHT22;7777;52.254;9.618;2024-02-14T09:10:23;9.00;99.90
15355;DHT22;7777;52.254;9.618;2024-02-14T09:12:48;9.00;99.90
15355;DHT22;7777;52.254;9.618;2024-02-14T09:15:15;9.10;99.90
15355;DHT22;7777;52.254;9.618;2024-02-14T09:17:40;9.00;99.90
15355;DHT22;7777;52.254;9.618;2024-02-14T09:20:08;9.20;99.90
15355;DHT22;7777;52.254;9.618;2024-02-14T09:22:35;9.20;99.90
15355;DHT22;7777;52.254;9.618;2024-02-14T09:25:02;9.20;99.90
15355;DHT22;7777;52.254;9.618;2024-02-14T09:27:31;9.20;99.90
15355;DHT22;7777;52.254;9.618;2024-02-14T09:29:58;9.30;99.90
15355;DHT22;7777;52.254;9.618;2024-02-14T09:32:24;9.30;99.90
15355;DHT22;7777;52.254;9.618;2024-02-14T09:34:50;9.30;99.90
15355;DHT22;7777;52.254;9.618;2024-02-14T09:37:16;9.40;99.90
15355;DHT22;7777;52.254;9.618;2024-02-14T09:39:42;9.40;99.90
15355;DHT22;7777;52.254;9.618;2024-02-14T09:42:13;9.40;99.90
15355;DHT22;7777;52.254;9.618;2024-02-14T09:44:40;9.50;99.90
15355;DHT22;7777;52.254;9.618;2024-02-14T09:47:07;9.50;99.90
15355;DHT22;7777;52.254;9.618;2024-02-14T09:49:35;9.60;99.90
15355;DHT22;7777;52.254;9.618;2024-02-14T09:52:02;9.60;99.90
15355;DHT22;7777;52.254;9.618;2024-02-14T09:54:31;9.60;99.90
15355;DHT22;7777;52.254;9.618;2024-02-14T09:57:00;9.70;99.90
15355;DHT22;7777;52.254;9.618;2024-02-14T09:59:28;9.70;99.90
15355;DHT22;7777;52.254;9.618;2024-02-14T10:01:56;9.80;99.90
15355;DHT22;7777;52.254;9.618;2024-02-14T10:04:21;9.80;99.90
15355;DHT22;7777;52.254;9.618;2024-02-14T10:06:50;9.80;99.90
15355;DHT22;7777;52.254;9.618;2024-02-14T10:09:25;9.90;99.90
15355;DHT22;7777;52.254;9.618;2024-02-14T10:11:51;9.90;99.90
15355;DHT22;7777;52.254;9.618;2024-02-14T10:14:16;10.00;99.90
15355;DHT22;7777;52.254;9.618;2024-02-14T10:16:42;10.00;99.90
15355;DHT22;7777;52.254;9.618;2024-02-14T10:19:17;10.00;99.90
15355;DHT22;7777;52.254;9.618;2024-02-14T10:21:43;10.10;99.90
15355;DHT22;7777;52.254;9.618;2024-02-14T10:24:09;10.10;99.90
15355;DHT22;7777;52.254;9.618;2024-02-14T10:26:38;10.20;99.90
15355;DHT22;7777;52.254;9.618;2024-02-14T10:29:06;10.20;99.90
15355;DHT22;7777;52.254;9.618;2024-02-14T10:31:31;10.20;99.90
15355;DHT22;7777;52.254;9.618;2024-02-14T10:33:59;10.30;99.90
15355;DHT22;7777;52.254;9.618;2024-02-14T10:36:26;10.30;99.90
15355;DHT22;7777;52.254;9.618;2024-02-14T10:38:52;10.30;99.90
15355;DHT22;7777;52.254;9.618;2024-02-14T10:41:19;10.40;99.90
15355;DHT22;7777;52.254;9.618;2024-02-14T10:43:45;10.40;99.90
15355;DHT22;7777;52.254;9.618;2024-02-14T10:46:20;10.40;99.90
15355;DHT22;7777;52.254;9.618;2024-02-14T10:49:08;10.50;99.90
15355;DHT22;7777;52.254;9.618;2024-02-14T10:51:38;10.50;99.90
15355;DHT22;7777;52.254;9.618;2024-02-14T10:54:08;10.60;99.90
15355;DHT22;7777;52.254;9.618;2024-02-14T10:56:38;10.60;99.90
15355;DHT22;7777;52.254;9.618;2024-02-14T10:59:08;10.70;99.90
15355;DHT22;7777;52.254;9.618;2024-02-14T11:01:36;10.70;99.90
15355;DHT22;7777;52.254;9.618;2024-02-14T11:04:03;10.70;99.90
15355;DHT22;7777;52.254;9.618;2024-02-14T11:06:30;10.80;99.90
15355;DHT22;7777;52.254;9.618;2024-02-14T11:09:06;10.80;99.90
15355;DHT22;7777;52.254;9.618;2024-02-14T11:11:35;10.80;99.90
15355;DHT22;7777;52.254;9.618;2024-02-14T11:14:02;10.90;99.90
15355;DHT22;7777;52.254;9.618;2024-02-14T11:16:30;10.90;99.90
15355;DHT22;7777;52.254;9.618;2024-02-14T11:19:11;10.90;99.90
15355;DHT22;7777;52.254;9.618;2024-02-14T11:21:42;11.00;99.90
15355;DHT22;7777;52.254;9.618;2024-02-14T11:24:10;11.00;99.90
15355;DHT22;7777;52.254;9.618;2024-02-14T11:26:47;11.00;99.90
15355;DHT22;7777;52.254;9.618;2024-02-14T11:29:15;11.10;99.90
15355;DHT22;7777;52.254;9.618;2024-02-14T11:31:47;11.10;99.90
15355;DHT22;7777;52.254;9.618;2024-02-14T11:34:16;11.10;99.90
15355;DHT22;7777;52.254;9.618;2024-02-14T11:36:44;11.20;99.90
15355;DHT22;7777;52.254;9.618;2024-02-14T11:39:11;11.30;99.90
15355;DHT22;7777;52.254;9.618;2024-02-14T11:41:38;11.30;99.90
15355;DHT22;7777;52.254;9.618;2024-02-14T11:44:05;11.30;99.90
15355;DHT22;7777;52.254;9.618;2024-02-14T11:46:32;11.40;99.90
15355;DHT22;7777;52.254;9.618;2024-02-14T11:49:00;11.40;99.90
15355;DHT22;7777;52.254;9.618;2024-02-14T11:51:33;11.40;99.90
15355;DHT22;7777;52.254;9.618;2024-02-14T11:54:01;11.50;99.90
15355;DHT22;7777;52.254;9.618;2024-02-14T11:56:37;11.50;99.90
15355;DHT22;7777;52.254;9.618;2024-02-14T11:59:04;11.50;99.90
15355;DHT22;7777;52.254;9.618;2024-02-14T12:01:33;11.50;99.90
15355;DHT22;7777;52.254;9.618;2024-02-14T12:04:08;11.60;99.90
15355;DHT22;7777;52.254;9.618;2024-02-14T12:06:34;11.60;99.90
15355;DHT22;7777;52.254;9.618;2024-02-14T12:09:04;11.60;99.90
15355;DHT22;7777;52.254;9.618;2024-02-14T12:11:35;11.60;99.90
15355;DHT22;7777;52.254;9.618;2024-02-14T12:14:05;11.60;99.90
15355;DHT22;7777;52.254;9.618;2024-02-14T12:16:31;11.60;99.90
15355;DHT22;7777;52.254;9.618;2024-02-14T12:19:09;11.60;99.90
15355;DHT22;7777;52.254;9.618;2024-02-14T12:21:41;11.60;99.90
15355;DHT22;7777;52.254;9.618;2024-02-14T12:24:09;11.60;99.90
15355;DHT22;7777;52.254;9.618;2024-02-14T12:26:39;11.60;99.90
15355;DHT22;7777;52.254;9.618;2024-02-14T12:29:06;11.60;99.90
15355;DHT22;7777;52.254;9.618;2024-02-14T12:31:34;11.60;99.90
15355;DHT22;7777;52.254;9.618;2024-02-14T12:34:04;11.60;99.90
15355;DHT22;7777;52.254;9.618;2024-02-14T12:36:32;11.60;99.90
15355;DHT22;7777;52.254;9.618;2024-02-14T12:38:59;11.60;99.90
15355;DHT22;7777;52.254;9.618;2024-02-14T12:41:28;11.60;99.90
15355;DHT22;7777;52.254;9.618;2024-02-14T12:44:00;11.60;99.90
15355;DHT22;7777;52.254;9.618;2024-02-14T12:46:26;11.60;99.90
15355;DHT22;7777;52.254;9.618;2024-02-14T12:48:52;11.60;99.90
15355;DHT22;7777;52.254;9.618;2024-02-14T12:51:17;11.60;99.90
15355;DHT22;7777;52.254;9.618;2024-02-14T12:53:44;11.60;99.90
15355;DHT22;7777;52.254;9.618;2024-02-14T12:56:09;11.60;99.90
15355;DHT22;7777;52.254;9.618;2024-02-14T12:58:36;11.60;99.90
15355;DHT22;7777;52.254;9.618;2024-02-14T13:01:02;11.60;99.90
15355;DHT22;7777;52.254;9.618;2024-02-14T13:03:31;11.60;99.90
15355;DHT22;7777;52.254;9.618;2024-02-14T13:05:59;11.70;99.90
15355;DHT22;7777;52.254;9.618;2024-02-14T13:08:31;11.70;99.90
15355;DHT22;7777;52.254;9.618;2024-02-14T13:10:57;11.70;99.90
15355;DHT22;7777;52.254;9.618;2024-02-14T13:13:23;11.70;99.90
15355;DHT22;7777;52.254;9.618;2024-02-14T13:15:49;11.70;99.90
15355;DHT22;7777;52.254;9.618;2024-02-14T13:18:15;11.70;99.90
15355;DHT22;7777;52.254;9.618;2024-02-14T13:20:42;11.70;99.90
15355;DHT22;7777;52.254;9.618;2024-02-14T13:23:10;11.70;99.90
15355;DHT22;7777;52.254;9.618;2024-02-14T13:25:36;11.70;99.90
15355;DHT22;7777;52.254;9.618;2024-02-14T13:28:03;11.70;99.90
15355;DHT22;7777;52.254;9.618;2024-02-14T13:30:30;11.70;99.90
15355;DHT22;7777;52.254;9.618;2024-02-14T13:32:55;11.70;99.90
15355;DHT22;7777;52.254;9.618;2024-02-14T13:35:21;11.70;99.90
15355;DHT22;7777;52.254;9.618;2024-02-14T13:37:48;11.70;99.90
15355;DHT22;7777;52.254;9.618;2024-02-14T13:40:14;11.70;99.90
15355;DHT22;7777;52.254;9.618;2024-02-14T13:42:40;11.80;99.90
15355;DHT22;7777;52.254;9.618;2024-02-14T13:45:06;11.80;99.90
15355;DHT22;7777;52.254;9.618;2024-02-14T13:47:37;11.80;99.90
15355;DHT22;7777;52.254;9.618;2024-02-14T13:50:08;11.80;99.90
15355;DHT22;7777;52.254;9.618;2024-02-14T13:52:35;11.80;99.90
15355;DHT22;7777;52.254;9.618;2024-02-14T13:55:04;11.80;99.90
15355;DHT22;7777;52.254;9.618;2024-02-14T13:57:35;11.90;99.90
15355;DHT22;7777;52.254;9.618;2024-02-14T14:00:04;11.90;99.90
15355;DHT22;7777;52.254;9.618;2024-02-14T14:02:31;11.90;99.90
15355;DHT22;7777;52.254;9.618;2024-02-14T14:04:57;11.90;99.90
15355;DHT22;7777;52.254;9.618;2024-02-14T14:07:22;11.90;99.90
15355;DHT22;7777;52.254;9.618;2024-02-14T14:09:49;11.90;99.90
15355;DHT22;7777;52.254;9.618;2024-02-14T14:12:15;11.80;99.90
15355;DHT22;7777;52.254;9.618;2024-02-14T14:14:40;11.80;99.90
15355;DHT22;7777;52.254;9.618;2024-02-14T14:17:06;11.80;99.90
15355;DHT22;7777;52.254;9.618;2024-02-14T14:19:32;11.80;99.90
15355;DHT22;7777;52.254;9.618;2024-02-14T14:21:58;11.80;99.90
15355;DHT22;7777;52.254;9.618;2024-02-14T14:24:24;11.80;99.90
15355;DHT22;7777;52.254;9.618;2024-02-14T14:26:51;11.80;99.90
15355;DHT22;7777;52.254;9.618;2024-02-14T14:29:17;11.80;99.90
15355;DHT22;7777;52.254;9.618;2024-02-14T14:31:43;11.80;99.90
15355;DHT22;7777;52.254;9.618;2024-02-14T14:34:09;11.80;99.90
15355;DHT22;7777;52.254;9.618;2024-02-14T14:36:35;11.80;99.90
15355;DHT22;7777;52.254;9.618;2024-02-14T14:39:03;11.80;99.90
15355;DHT22;7777;52.254;9.618;2024-02-14T14:41:28;11.70;99.90
15355;DHT22;7777;52.254;9.618;2024-02-14T14:43:54;11.70;99.90
15355;DHT22;7777;52.254;9.618;2024-02-14T14:46:20;11.70;99.90
15355;DHT22;7777;52.254;9.618;2024-02-14T14:48:46;11.70;99.90
15355;DHT22;7777;52.254;9.618;2024-02-14T14:51:12;11.70;99.90
15355;DHT22;7777;52.254;9.618;2024-02-14T14:53:38;11.70;99.90
15355;DHT22;7777;52.254;9.618;2024-02-14T14:56:04;11.70;99.90
15355;DHT22;7777;52.254;9.618;2024-02-14T14:58:30;11.70;99.90
15355;DHT22;7777;52.254;9.618;2024-02-14T15:00:59;11.70;99.90
15355;DHT22;7777;52.254;9.618;2024-02-14T15:03:26;11.70;99.90
15355;DHT22;7777;52.254;9.618;2024-02-14T15:05:52;11.70;99.90
15355;DHT22;7777;52.254;9.618;2024-02-14T15:08:19;11.70;99.90
15355;DHT22;7777;52.254;9.618;2024-02-14T15:10:51;11.70;99.90
15355;DHT22;7777;52.254;9.618;2024-02-14T15:13:21;11.60;99.90
15355;DHT22;7777;52.254;9.618;2024-02-14T15:15:47;11.60;99.90
15355;DHT22;7777;52.254;9.618;2024-02-14T15:18:13;11.60;99.90
15355;DHT22;7777;52.254;9.618;2024-02-14T15:20:39;11.60;99.90
15355;DHT22;7777;52.254;9.618;2024-02-14T15:23:05;11.60;99.90
15355;DHT22;7777;52.254;9.618;2024-02-14T15:25:32;11.60;99.90
15355;DHT22;7777;52.254;9.618;2024-02-14T15:27:59;11.60;99.90
15355;DHT22;7777;52.254;9.618;2024-02-14T15:30:26;11.50;99.90
15355;DHT22;7777;52.254;9.618;2024-02-14T15:33:11;11.50;99.90
15355;DHT22;7777;52.254;9.618;2024-02-14T15:35:50;11.50;99.90
15355;DHT22;7777;52.254;9.618;2024-02-14T15:38:18;11.50;99.90
15355;DHT22;7777;52.254;9.618;2024-02-14T15:40:45;11.50;99.90
15355;DHT22;7777;52.254;9.618;2024-02-14T15:43:12;11.50;99.90
15355;DHT22;7777;52.254;9.618;2024-02-14T15:45:38;11.50;99.90
15355;DHT22;7777;52.254;9.618;2024-02-14T15:48:04;11.50;99.90
15355;DHT22;7777;52.254;9.618;2024-02-14T15:50:31;11.50;99.90
15355;DHT22;7777;52.254;9.618;2024-02-14T15:52:57;11.50;99.90
15355;DHT22;7777;52.254;9.618;2024-02-14T15:55:23;11.50;99.90